Burton upon Trent, United Kingdom
Current Conditions -  °F | °C
As of 8:20 PM on Sunday 25 Jan 2015 (Local Time) from EGNX Reporting Station
Broken Clouds Broken Clouds  
Wind Chill: 41°   Ceiling: 1200
Heat Index: 46°   Visibility: 6mi
Dew Point: 43°   Wind: 13mph
Humidity: 87%   Direction: 210°SSW
Pressure: 30.21"   Gusts: NA
Location:  52.81°N, 1.64°W
Report Text: EGNX 252020Z 21011KT 9999 FEW008 BKN012 08/06 Q1023
Loading
Personal Weather Stations






























Interactive Weather Map New forecast layout! Learn more

10-Day Weather Forecast

Advertisements
Track Severe Weather on mobile